sensor_id;sensor_type;location;lat;lon;timestamp;temperature;humidity
8994;DHT22;4532;50.886;4.700;2023-12-20T00:01:27;10.20;78.90
8994;DHT22;4532;50.886;4.700;2023-12-20T00:03:54;10.10;78.90
8994;DHT22;4532;50.886;4.700;2023-12-20T00:06:21;10.10;78.80
8994;DHT22;4532;50.886;4.700;2023-12-20T00:08:51;10.10;78.80
8994;DHT22;4532;50.886;4.700;2023-12-20T00:11:18;10.00;78.80
8994;DHT22;4532;50.886;4.700;2023-12-20T00:13:45;10.00;78.80
8994;DHT22;4532;50.886;4.700;2023-12-20T00:16:20;10.00;78.80
8994;DHT22;4532;50.886;4.700;2023-12-20T00:18:47;9.90;79.60
8994;DHT22;4532;50.886;4.700;2023-12-20T00:21:17;9.90;78.90
8994;DHT22;4532;50.886;4.700;2023-12-20T00:23:44;9.90;78.90
8994;DHT22;4532;50.886;4.700;2023-12-20T00:26:11;9.90;78.80
8994;DHT22;4532;50.886;4.700;2023-12-20T00:28:39;9.80;78.70
8994;DHT22;4532;50.886;4.700;2023-12-20T00:31:09;9.80;78.80
8994;DHT22;4532;50.886;4.700;2023-12-20T00:33:37;9.80;78.80
8994;DHT22;4532;50.886;4.700;2023-12-20T00:36:09;9.80;78.80
8994;DHT22;4532;50.886;4.700;2023-12-20T00:38:36;9.70;78.80
8994;DHT22;4532;50.886;4.700;2023-12-20T00:41:04;9.70;78.80
8994;DHT22;4532;50.886;4.700;2023-12-20T00:43:33;9.70;78.80
8994;DHT22;4532;50.886;4.700;2023-12-20T00:46:01;9.60;79.40
8994;DHT22;4532;50.886;4.700;2023-12-20T00:48:28;9.60;78.70
8994;DHT22;4532;50.886;4.700;2023-12-20T00:51:00;9.60;78.80
8994;DHT22;4532;50.886;4.700;2023-12-20T00:53:27;9.60;78.80
8994;DHT22;4532;50.886;4.700;2023-12-20T00:55:54;9.60;78.80
8994;DHT22;4532;50.886;4.700;2023-12-20T00:58:21;9.50;78.90
8994;DHT22;4532;50.886;4.700;2023-12-20T01:00:51;9.50;78.90
8994;DHT22;4532;50.886;4.700;2023-12-20T01:03:20;9.50;78.90
8994;DHT22;4532;50.886;4.700;2023-12-20T01:05:50;9.50;78.80
8994;DHT22;4532;50.886;4.700;2023-12-20T01:08:17;9.50;78.90
8994;DHT22;4532;50.886;4.700;2023-12-20T01:10:47;9.50;78.90
8994;DHT22;4532;50.886;4.700;2023-12-20T01:13:14;9.50;78.80
8994;DHT22;4532;50.886;4.700;2023-12-20T01:15:42;9.40;78.70
8994;DHT22;4532;50.886;4.700;2023-12-20T01:18:16;9.40;78.70
8994;DHT22;4532;50.886;4.700;2023-12-20T01:20:46;9.40;78.80
8994;DHT22;4532;50.886;4.700;2023-12-20T01:23:18;9.40;78.80
8994;DHT22;4532;50.886;4.700;2023-12-20T01:25:48;9.40;78.90
8994;DHT22;4532;50.886;4.700;2023-12-20T01:28:15;9.40;78.90
8994;DHT22;4532;50.886;4.700;2023-12-20T01:30:45;9.30;78.80
8994;DHT22;4532;50.886;4.700;2023-12-20T01:33:15;9.30;78.80
8994;DHT22;4532;50.886;4.700;2023-12-20T01:35:44;9.30;78.80
8994;DHT22;4532;50.886;4.700;2023-12-20T01:38:13;9.30;78.80
8994;DHT22;4532;50.886;4.700;2023-12-20T01:40:41;9.30;78.80
8994;DHT22;4532;50.886;4.700;2023-12-20T01:43:08;9.20;78.80
8994;DHT22;4532;50.886;4.700;2023-12-20T01:45:41;9.20;78.90
8994;DHT22;4532;50.886;4.700;2023-12-20T01:48:09;9.20;78.90
8994;DHT22;4532;50.886;4.700;2023-12-20T01:50:39;9.20;78.80
8994;DHT22;4532;50.886;4.700;2023-12-20T01:53:11;9.20;78.80
8994;DHT22;4532;50.886;4.700;2023-12-20T01:55:40;9.20;78.80
8994;DHT22;4532;50.886;4.700;2023-12-20T01:58:09;9.20;78.70
8994;DHT22;4532;50.886;4.700;2023-12-20T02:00:38;9.20;78.70
8994;DHT22;4532;50.886;4.700;2023-12-20T02:03:05;9.10;78.60
8994;DHT22;4532;50.886;4.700;2023-12-20T02:05:36;9.10;78.60
8994;DHT22;4532;50.886;4.700;2023-12-20T02:08:04;9.10;78.70
8994;DHT22;4532;50.886;4.700;2023-12-20T02:10:32;9.10;78.80
8994;DHT22;4532;50.886;4.700;2023-12-20T02:13:07;9.10;78.90
8994;DHT22;4532;50.886;4.700;2023-12-20T02:15:36;9.00;78.90
8994;DHT22;4532;50.886;4.700;2023-12-20T02:18:09;9.00;78.80
8994;DHT22;4532;50.886;4.700;2023-12-20T02:20:42;9.00;78.90
8994;DHT22;4532;50.886;4.700;2023-12-20T02:23:11;9.00;78.80
8994;DHT22;4532;50.886;4.700;2023-12-20T02:25:41;9.00;78.90
8994;DHT22;4532;50.886;4.700;2023-12-20T02:28:10;9.00;78.90
8994;DHT22;4532;50.886;4.700;2023-12-20T02:30:40;9.00;78.90
8994;DHT22;4532;50.886;4.700;2023-12-20T02:33:11;9.00;78.90
8994;DHT22;4532;50.886;4.700;2023-12-20T02:35:42;9.00;78.90
8994;DHT22;4532;50.886;4.700;2023-12-20T02:38:09;9.00;78.90
8994;DHT22;4532;50.886;4.700;2023-12-20T02:40:40;9.00;78.80
8994;DHT22;4532;50.886;4.700;2023-12-20T02:43:15;9.00;78.80
8994;DHT22;4532;50.886;4.700;2023-12-20T02:45:42;8.90;78.80
8994;DHT22;4532;50.886;4.700;2023-12-20T02:48:14;8.90;78.90
8994;DHT22;4532;50.886;4.700;2023-12-20T02:50:47;8.90;78.90
8994;DHT22;4532;50.886;4.700;2023-12-20T02:53:16;8.90;79.00
8994;DHT22;4532;50.886;4.700;2023-12-20T02:55:44;8.90;78.90
8994;DHT22;4532;50.886;4.700;2023-12-20T02:58:13;8.90;79.10
8994;DHT22;4532;50.886;4.700;2023-12-20T03:00:43;8.90;79.10
8994;DHT22;4532;50.886;4.700;2023-12-20T03:03:13;8.90;79.00
8994;DHT22;4532;50.886;4.700;2023-12-20T03:05:45;9.00;79.10
8994;DHT22;4532;50.886;4.700;2023-12-20T03:08:13;9.00;79.10
8994;DHT22;4532;50.886;4.700;2023-12-20T03:10:43;9.00;79.00
8994;DHT22;4532;50.886;4.700;2023-12-20T03:13:13;9.00;79.00
8994;DHT22;4532;50.886;4.700;2023-12-20T03:15:42;9.00;79.00
8994;DHT22;4532;50.886;4.700;2023-12-20T03:18:12;9.00;79.00
8994;DHT22;4532;50.886;4.700;2023-12-20T03:20:39;9.00;79.00
8994;DHT22;4532;50.886;4.700;2023-12-20T03:23:10;8.90;78.90
8994;DHT22;4532;50.886;4.700;2023-12-20T03:25:37;8.90;78.90
8994;DHT22;4532;50.886;4.700;2023-12-20T03:28:07;8.90;79.00
8994;DHT22;4532;50.886;4.700;2023-12-20T03:30:34;8.90;78.90
8994;DHT22;4532;50.886;4.700;2023-12-20T03:33:01;8.90;78.90
8994;DHT22;4532;50.886;4.700;2023-12-20T03:35:28;8.90;78.90
8994;DHT22;4532;50.886;4.700;2023-12-20T03:37:56;8.90;78.90
8994;DHT22;4532;50.886;4.700;2023-12-20T03:40:24;8.90;78.90
8994;DHT22;4532;50.886;4.700;2023-12-20T03:42:51;8.90;78.90
8994;DHT22;4532;50.886;4.700;2023-12-20T03:45:21;8.90;78.90
8994;DHT22;4532;50.886;4.700;2023-12-20T03:47:48;8.90;78.90
8994;DHT22;4532;50.886;4.700;2023-12-20T03:50:16;8.90;78.90
8994;DHT22;4532;50.886;4.700;2023-12-20T03:52:45;8.80;79.00
8994;DHT22;4532;50.886;4.700;2023-12-20T03:55:13;8.80;79.00
8994;DHT22;4532;50.886;4.700;2023-12-20T03:57:40;8.80;79.00
8994;DHT22;4532;50.886;4.700;2023-12-20T04:00:10;8.80;78.90
8994;DHT22;4532;50.886;4.700;2023-12-20T04:02:39;8.80;79.00
8994;DHT22;4532;50.886;4.700;2023-12-20T04:05:10;8.80;79.00
8994;DHT22;4532;50.886;4.700;2023-12-20T04:07:38;8.80;78.90
8994;DHT22;4532;50.886;4.700;2023-12-20T04:10:05;8.80;78.90
8994;DHT22;4532;50.886;4.700;2023-12-20T04:12:33;8.80;78.90
8994;DHT22;4532;50.886;4.700;2023-12-20T04:15:00;8.80;79.00
8994;DHT22;4532;50.886;4.700;2023-12-20T04:17:30;8.80;79.00
8994;DHT22;4532;50.886;4.700;2023-12-20T04:19:57;8.80;79.00
8994;DHT22;4532;50.886;4.700;2023-12-20T04:22:32;8.80;79.00
8994;DHT22;4532;50.886;4.700;2023-12-20T04:24:59;8.80;79.00
8994;DHT22;4532;50.886;4.700;2023-12-20T04:27:29;8.80;79.00
8994;DHT22;4532;50.886;4.700;2023-12-20T04:29:56;8.80;79.00
8994;DHT22;4532;50.886;4.700;2023-12-20T04:32:25;8.70;78.90
8994;DHT22;4532;50.886;4.700;2023-12-20T04:34:55;8.70;78.90
8994;DHT22;4532;50.886;4.700;2023-12-20T04:37:22;8.70;78.90
8994;DHT22;4532;50.886;4.700;2023-12-20T04:39:50;8.70;78.90
8994;DHT22;4532;50.886;4.700;2023-12-20T04:42:17;8.70;78.90
8994;DHT22;4532;50.886;4.700;2023-12-20T04:44:47;8.70;78.90
8994;DHT22;4532;50.886;4.700;2023-12-20T04:47:19;8.70;78.90
8994;DHT22;4532;50.886;4.700;2023-12-20T04:49:46;8.70;78.90
8994;DHT22;4532;50.886;4.700;2023-12-20T04:52:16;8.70;78.90
8994;DHT22;4532;50.886;4.700;2023-12-20T04:54:43;8.70;78.90
8994;DHT22;4532;50.886;4.700;2023-12-20T04:57:11;8.60;78.80
8994;DHT22;4532;50.886;4.700;2023-12-20T04:59:38;8.60;78.80
8994;DHT22;4532;50.886;4.700;2023-12-20T05:02:05;8.60;78.80
8994;DHT22;4532;50.886;4.700;2023-12-20T05:04:33;8.60;78.80
8994;DHT22;4532;50.886;4.700;2023-12-20T05:07:00;8.60;78.80
8994;DHT22;4532;50.886;4.700;2023-12-20T05:09:27;8.60;78.90
8994;DHT22;4532;50.886;4.700;2023-12-20T05:11:57;8.60;78.80
8994;DHT22;4532;50.886;4.700;2023-12-20T05:14:25;8.60;78.90
8994;DHT22;4532;50.886;4.700;2023-12-20T05:16:56;8.60;78.90
8994;DHT22;4532;50.886;4.700;2023-12-20T05:19:27;8.50;78.90
8994;DHT22;4532;50.886;4.700;2023-12-20T05:21:59;8.50;78.90
8994;DHT22;4532;50.886;4.700;2023-12-20T05:24:31;8.50;78.80
8994;DHT22;4532;50.886;4.700;2023-12-20T05:26:59;8.50;79.70
8994;DHT22;4532;50.886;4.700;2023-12-20T05:29:26;8.50;78.90
8994;DHT22;4532;50.886;4.700;2023-12-20T05:31:54;8.50;79.00
8994;DHT22;4532;50.886;4.700;2023-12-20T05:34:23;8.50;78.90
8994;DHT22;4532;50.886;4.700;2023-12-20T05:36:58;8.50;79.00
8994;DHT22;4532;50.886;4.700;2023-12-20T05:39:29;8.40;78.90
8994;DHT22;4532;50.886;4.700;2023-12-20T05:41:58;8.40;78.90
8994;DHT22;4532;50.886;4.700;2023-12-20T05:44:27;8.40;78.90
8994;DHT22;4532;50.886;4.700;2023-12-20T05:46:54;8.40;78.90
8994;DHT22;4532;50.886;4.700;2023-12-20T05:49:24;8.40;78.90
8994;DHT22;4532;50.886;4.700;2023-12-20T05:51:53;8.40;78.90
8994;DHT22;4532;50.886;4.700;2023-12-20T05:54:21;8.40;79.00
8994;DHT22;4532;50.886;4.700;2023-12-20T05:56:49;8.40;79.00
8994;DHT22;4532;50.886;4.700;2023-12-20T05:59:16;8.40;78.90
8994;DHT22;4532;50.886;4.700;2023-12-20T06:01:43;8.40;79.00
8994;DHT22;4532;50.886;4.700;2023-12-20T06:04:10;8.40;79.00
8994;DHT22;4532;50.886;4.700;2023-12-20T06:06:44;8.40;79.00
8994;DHT22;4532;50.886;4.700;2023-12-20T06:09:14;8.40;79.00
8994;DHT22;4532;50.886;4.700;2023-12-20T06:11:42;8.40;79.00
8994;DHT22;4532;50.886;4.700;2023-12-20T06:14:12;8.30;78.90
8994;DHT22;4532;50.886;4.700;2023-12-20T06:16:39;8.40;79.00
8994;DHT22;4532;50.886;4.700;2023-12-20T06:19:07;8.30;79.00
8994;DHT22;4532;50.886;4.700;2023-12-20T06:21:34;8.30;79.00
8994;DHT22;4532;50.886;4.700;2023-12-20T06:24:06;8.30;79.00
8994;DHT22;4532;50.886;4.700;2023-12-20T06:26:33;8.30;79.00
8994;DHT22;4532;50.886;4.700;2023-12-20T06:29:01;8.30;79.10
8994;DHT22;4532;50.886;4.700;2023-12-20T06:31:30;8.30;79.00
8994;DHT22;4532;50.886;4.700;2023-12-20T06:34:02;8.30;79.10
8994;DHT22;4532;50.886;4.700;2023-12-20T06:36:34;8.30;79.00
8994;DHT22;4532;50.886;4.700;2023-12-20T06:39:04;8.30;79.00
8994;DHT22;4532;50.886;4.700;2023-12-20T06:41:38;8.30;79.10
8994;DHT22;4532;50.886;4.700;2023-12-20T06:44:08;8.30;79.10
8994;DHT22;4532;50.886;4.700;2023-12-20T06:46:37;8.30;79.10
8994;DHT22;4532;50.886;4.700;2023-12-20T06:49:07;8.40;79.00
8994;DHT22;4532;50.886;4.700;2023-12-20T06:51:34;8.30;79.00
8994;DHT22;4532;50.886;4.700;2023-12-20T06:54:06;8.30;78.90
8994;DHT22;4532;50.886;4.700;2023-12-20T06:56:36;8.30;79.00
8994;DHT22;4532;50.886;4.700;2023-12-20T06:59:03;8.30;78.90
8994;DHT22;4532;50.886;4.700;2023-12-20T07:01:33;8.30;78.90
8994;DHT22;4532;50.886;4.700;2023-12-20T07:04:00;8.30;79.00
8994;DHT22;4532;50.886;4.700;2023-12-20T07:06:32;8.30;78.90
8994;DHT22;4532;50.886;4.700;2023-12-20T07:09:01;8.30;79.00
8994;DHT22;4532;50.886;4.700;2023-12-20T07:11:29;8.30;79.10
8994;DHT22;4532;50.886;4.700;2023-12-20T07:13:58;8.30;79.00
8994;DHT22;4532;50.886;4.700;2023-12-20T07:16:28;8.30;79.10
8994;DHT22;4532;50.886;4.700;2023-12-20T07:18:58;8.30;79.00
8994;DHT22;4532;50.886;4.700;2023-12-20T07:21:28;8.30;79.10
8994;DHT22;4532;50.886;4.700;2023-12-20T07:23:57;8.30;78.90
8994;DHT22;4532;50.886;4.700;2023-12-20T07:26:27;8.30;78.90
8994;DHT22;4532;50.886;4.700;2023-12-20T07:28:58;8.20;78.80
8994;DHT22;4532;50.886;4.700;2023-12-20T07:31:29;8.20;78.90
8994;DHT22;4532;50.886;4.700;2023-12-20T07:33:59;8.20;78.90
8994;DHT22;4532;50.886;4.700;2023-12-20T07:36:29;8.20;79.00
8994;DHT22;4532;50.886;4.700;2023-12-20T07:38:56;8.20;79.00
8994;DHT22;4532;50.886;4.700;2023-12-20T07:41:23;8.20;78.90
8994;DHT22;4532;50.886;4.700;2023-12-20T07:43:53;8.20;78.80
8994;DHT22;4532;50.886;4.700;2023-12-20T07:46:25;8.20;78.80
8994;DHT22;4532;50.886;4.700;2023-12-20T07:48:54;8.10;78.80
8994;DHT22;4532;50.886;4.700;2023-12-20T07:51:26;8.10;78.80
8994;DHT22;4532;50.886;4.700;2023-12-20T07:53:54;8.10;78.90
8994;DHT22;4532;50.886;4.700;2023-12-20T07:56:23;8.10;78.90
8994;DHT22;4532;50.886;4.700;2023-12-20T07:58:53;8.10;78.90
8994;DHT22;4532;50.886;4.700;2023-12-20T08:01:23;8.10;78.80
8994;DHT22;4532;50.886;4.700;2023-12-20T08:03:53;8.10;78.90
8994;DHT22;4532;50.886;4.700;2023-12-20T08:06:21;8.10;78.90
8994;DHT22;4532;50.886;4.700;2023-12-20T08:08:48;8.00;79.00
8994;DHT22;4532;50.886;4.700;2023-12-20T08:11:28;8.00;78.90
8994;DHT22;4532;50.886;4.700;2023-12-20T08:14:00;8.00;78.90
8994;DHT22;4532;50.886;4.700;2023-12-20T08:16:32;8.00;78.90
8994;DHT22;4532;50.886;4.700;2023-12-20T08:19:02;8.00;79.00
8994;DHT22;4532;50.886;4.700;2023-12-20T08:21:29;8.00;79.00
8994;DHT22;4532;50.886;4.700;2023-12-20T08:24:00;8.00;79.00
8994;DHT22;4532;50.886;4.700;2023-12-20T08:26:33;8.00;79.00
8994;DHT22;4532;50.886;4.700;2023-12-20T08:29:00;8.10;79.10
8994;DHT22;4532;50.886;4.700;2023-12-20T08:31:28;8.10;79.00
8994;DHT22;4532;50.886;4.700;2023-12-20T08:33:58;8.00;79.00
8994;DHT22;4532;50.886;4.700;2023-12-20T08:36:30;8.00;79.00
8994;DHT22;4532;50.886;4.700;2023-12-20T08:38:59;8.00;79.00
8994;DHT22;4532;50.886;4.700;2023-12-20T08:41:32;8.10;79.10
8994;DHT22;4532;50.886;4.700;2023-12-20T08:44:03;8.10;79.20
8994;DHT22;4532;50.886;4.700;2023-12-20T08:46:30;8.10;79.10
8994;DHT22;4532;50.886;4.700;2023-12-20T08:48:57;8.10;79.20
8994;DHT22;4532;50.886;4.700;2023-12-20T08:51:30;8.10;79.20
8994;DHT22;4532;50.886;4.700;2023-12-20T08:54:00;8.10;79.20
8994;DHT22;4532;50.886;4.700;2023-12-20T08:56:31;8.10;79.20
8994;DHT22;4532;50.886;4.700;2023-12-20T08:58:59;8.20;79.30
8994;DHT22;4532;50.886;4.700;2023-12-20T09:01:28;8.20;79.30
8994;DHT22;4532;50.886;4.700;2023-12-20T09:04:00;8.20;79.30
8994;DHT22;4532;50.886;4.700;2023-12-20T09:06:27;8.20;79.20
8994;DHT22;4532;50.886;4.700;2023-12-20T09:08:54;8.30;79.30
8994;DHT22;4532;50.886;4.700;2023-12-20T09:11:22;8.30;79.20
8994;DHT22;4532;50.886;4.700;2023-12-20T09:13:49;8.30;79.20
8994;DHT22;4532;50.886;4.700;2023-12-20T09:16:16;8.30;79.20
8994;DHT22;4532;50.886;4.700;2023-12-20T09:18:51;8.30;79.20
8994;DHT22;4532;50.886;4.700;2023-12-20T09:21:23;8.30;79.40
8994;DHT22;4532;50.886;4.700;2023-12-20T09:23:50;8.30;79.20
8994;DHT22;4532;50.886;4.700;2023-12-20T09:26:19;8.30;79.30
8994;DHT22;4532;50.886;4.700;2023-12-20T09:28:50;8.40;79.40
8994;DHT22;4532;50.886;4.700;2023-12-20T09:31:17;8.40;79.40
8994;DHT22;4532;50.886;4.700;2023-12-20T09:33:44;8.40;79.30
8994;DHT22;4532;50.886;4.700;2023-12-20T09:36:12;8.40;79.30
8994;DHT22;4532;50.886;4.700;2023-12-20T09:38:44;8.40;79.20
8994;DHT22;4532;50.886;4.700;2023-12-20T09:41:16;8.40;79.30
8994;DHT22;4532;50.886;4.700;2023-12-20T09:43:43;8.40;79.30
8994;DHT22;4532;50.886;4.700;2023-12-20T09:46:12;8.40;79.30
8994;DHT22;4532;50.886;4.700;2023-12-20T09:48:45;8.40;79.30
8994;DHT22;4532;50.886;4.700;2023-12-20T09:51:13;8.50;79.40
8994;DHT22;4532;50.886;4.700;2023-12-20T09:53:47;8.50;79.40
8994;DHT22;4532;50.886;4.700;2023-12-20T09:56:18;8.50;79.50
8994;DHT22;4532;50.886;4.700;2023-12-20T09:58:45;8.50;79.40
8994;DHT22;4532;50.886;4.700;2023-12-20T10:01:14;8.60;79.50
8994;DHT22;4532;50.886;4.700;2023-12-20T10:03:45;8.60;79.40
8994;DHT22;4532;50.886;4.700;2023-12-20T10:06:15;8.60;79.40
8994;DHT22;4532;50.886;4.700;2023-12-20T10:08:43;8.60;79.30
8994;DHT22;4532;50.886;4.700;2023-12-20T10:11:15;8.60;79.30
8994;DHT22;4532;50.886;4.700;2023-12-20T10:13:47;8.60;79.30
8994;DHT22;4532;50.886;4.700;2023-12-20T10:16:17;8.60;79.40
8994;DHT22;4532;50.886;4.700;2023-12-20T10:18:45;8.70;79.50
8994;DHT22;4532;50.886;4.700;2023-12-20T10:21:15;8.70;79.60
8994;DHT22;4532;50.886;4.700;2023-12-20T10:23:44;8.70;79.50
8994;DHT22;4532;50.886;4.700;2023-12-20T10:26:26;8.70;79.50
8994;DHT22;4532;50.886;4.700;2023-12-20T10:29:01;8.80;79.60
8994;DHT22;4532;50.886;4.700;2023-12-20T10:31:33;8.80;79.50
8994;DHT22;4532;50.886;4.700;2023-12-20T10:34:04;8.80;79.60
8994;DHT22;4532;50.886;4.700;2023-12-20T10:36:34;8.80;79.60
8994;DHT22;4532;50.886;4.700;2023-12-20T10:39:04;8.80;79.50
8994;DHT22;4532;50.886;4.700;2023-12-20T10:41:37;8.90;79.70
8994;DHT22;4532;50.886;4.700;2023-12-20T10:44:11;8.90;79.70
8994;DHT22;4532;50.886;4.700;2023-12-20T10:46:40;8.90;79.80
8994;DHT22;4532;50.886;4.700;2023-12-20T10:49:08;8.90;79.70
8994;DHT22;4532;50.886;4.700;2023-12-20T10:51:44;9.00;79.80
8994;DHT22;4532;50.886;4.700;2023-12-20T10:54:13;9.00;79.80
8994;DHT22;4532;50.886;4.700;2023-12-20T10:56:40;9.00;79.80
8994;DHT22;4532;50.886;4.700;2023-12-20T10:59:11;9.00;79.60
8994;DHT22;4532;50.886;4.700;2023-12-20T11:01:43;9.00;79.70
8994;DHT22;4532;50.886;4.700;2023-12-20T11:04:18;9.10;79.80
8994;DHT22;4532;50.886;4.700;2023-12-20T11:06:52;9.10;79.70
8994;DHT22;4532;50.886;4.700;2023-12-20T11:09:35;9.10;79.90
8994;DHT22;4532;50.886;4.700;2023-12-20T11:12:20;9.10;79.80
8994;DHT22;4532;50.886;4.700;2023-12-20T11:14:51;9.20;80.00
8994;DHT22;4532;50.886;4.700;2023-12-20T11:17:19;9.20;80.00
8994;DHT22;4532;50.886;4.700;2023-12-20T11:22:51;9.30;79.90
8994;DHT22;4532;50.886;4.700;2023-12-20T11:25:21;9.30;79.80
8994;DHT22;4532;50.886;4.700;2023-12-20T11:28:10;9.30;80.20
8994;DHT22;4532;50.886;4.700;2023-12-20T11:31:00;9.30;80.00
8994;DHT22;4532;50.886;4.700;2023-12-20T11:33:36;9.40;80.90
8994;DHT22;4532;50.886;4.700;2023-12-20T11:36:15;9.40;80.00
8994;DHT22;4532;50.886;4.700;2023-12-20T11:38:56;9.40;80.20
8994;DHT22;4532;50.886;4.700;2023-12-20T11:41:25;9.50;80.20
8994;DHT22;4532;50.886;4.700;2023-12-20T11:43:56;9.50;80.20
8994;DHT22;4532;50.886;4.700;2023-12-20T11:46:23;9.50;80.10
8994;DHT22;4532;50.886;4.700;2023-12-20T11:48:51;9.50;80.10
8994;DHT22;4532;50.886;4.700;2023-12-20T11:51:21;9.60;80.20
8994;DHT22;4532;50.886;4.700;2023-12-20T11:53:56;9.60;80.20
8994;DHT22;4532;50.886;4.700;2023-12-20T11:56:23;9.70;80.30
8994;DHT22;4532;50.886;4.700;2023-12-20T11:58:53;9.70;80.30
8994;DHT22;4532;50.886;4.700;2023-12-20T12:01:28;9.70;80.30
8994;DHT22;4532;50.886;4.700;2023-12-20T12:04:03;9.80;80.30
8994;DHT22;4532;50.886;4.700;2023-12-20T12:06:33;9.80;80.30
8994;DHT22;4532;50.886;4.700;2023-12-20T12:09:03;9.80;80.30
8994;DHT22;4532;50.886;4.700;2023-12-20T12:11:31;9.80;80.20
8994;DHT22;4532;50.886;4.700;2023-12-20T12:13:59;9.90;80.20
8994;DHT22;4532;50.886;4.700;2023-12-20T12:16:29;9.90;80.20
8994;DHT22;4532;50.886;4.700;2023-12-20T12:18:59;10.00;80.30
8994;DHT22;4532;50.886;4.700;2023-12-20T12:21:30;10.00;80.20
8994;DHT22;4532;50.886;4.700;2023-12-20T12:24:09;10.00;80.30
8994;DHT22;4532;50.886;4.700;2023-12-20T12:26:37;10.00;80.30
8994;DHT22;4532;50.886;4.700;2023-12-20T12:29:07;10.00;80.20
8994;DHT22;4532;50.886;4.700;2023-12-20T12:31:37;10.00;80.30
8994;DHT22;4532;50.886;4.700;2023-12-20T12:34:07;10.00;80.20
8994;DHT22;4532;50.886;4.700;2023-12-20T12:36:36;10.10;80.30
8994;DHT22;4532;50.886;4.700;2023-12-20T12:39:08;10.10;80.30
8994;DHT22;4532;50.886;4.700;2023-12-20T12:41:35;10.10;80.20
8994;DHT22;4532;50.886;4.700;2023-12-20T12:44:07;10.10;80.10
8994;DHT22;4532;50.886;4.700;2023-12-20T12:46:47;10.10;80.10
8994;DHT22;4532;50.886;4.700;2023-12-20T12:49:20;10.10;80.20
8994;DHT22;4532;50.886;4.700;2023-12-20T12:51:51;10.10;80.20
8994;DHT22;4532;50.886;4.700;2023-12-20T12:54:18;10.10;80.20
8994;DHT22;4532;50.886;4.700;2023-12-20T12:56:45;10.20;80.30
8994;DHT22;4532;50.886;4.700;2023-12-20T12:59:14;10.20;80.40
8994;DHT22;4532;50.886;4.700;2023-12-20T13:01:41;10.20;80.40
8994;DHT22;4532;50.886;4.700;2023-12-20T13:04:09;10.20;80.40
8994;DHT22;4532;50.886;4.700;2023-12-20T13:06:43;10.20;80.40
8994;DHT22;4532;50.886;4.700;2023-12-20T13:09:13;10.20;80.30
8994;DHT22;4532;50.886;4.700;2023-12-20T13:11:43;10.20;80.30
8994;DHT22;4532;50.886;4.700;2023-12-20T13:14:12;10.30;80.30
8994;DHT22;4532;50.886;4.700;2023-12-20T13:16:42;10.30;80.30
8994;DHT22;4532;50.886;4.700;2023-12-20T13:19:14;10.30;80.30
8994;DHT22;4532;50.886;4.700;2023-12-20T13:21:43;10.30;80.30
8994;DHT22;4532;50.886;4.700;2023-12-20T13:24:15;10.30;80.30
8994;DHT22;4532;50.886;4.700;2023-12-20T13:26:45;10.30;80.30
8994;DHT22;4532;50.886;4.700;2023-12-20T13:29:15;10.30;80.40
8994;DHT22;4532;50.886;4.700;2023-12-20T13:31:42;10.30;80.30
8994;DHT22;4532;50.886;4.700;2023-12-20T13:34:10;10.40;80.40
8994;DHT22;4532;50.886;4.700;2023-12-20T13:36:38;10.40;80.40
8994;DHT22;4532;50.886;4.700;2023-12-20T13:39:08;10.40;80.40
8994;DHT22;4532;50.886;4.700;2023-12-20T13:41:39;10.40;80.40
8994;DHT22;4532;50.886;4.700;2023-12-20T13:44:12;10.40;80.50
8994;DHT22;4532;50.886;4.700;2023-12-20T13:46:41;10.40;80.50
8994;DHT22;4532;50.886;4.700;2023-12-20T13:49:10;10.50;80.50
8994;DHT22;4532;50.886;4.700;2023-12-20T13:51:43;10.50;80.50
8994;DHT22;4532;50.886;4.700;2023-12-20T13:54:12;10.50;80.40
8994;DHT22;4532;50.886;4.700;2023-12-20T13:56:40;10.50;80.40
8994;DHT22;4532;50.886;4.700;2023-12-20T13:59:22;10.50;80.50
8994;DHT22;4532;50.886;4.700;2023-12-20T14:01:49;10.50;80.60
8994;DHT22;4532;50.886;4.700;2023-12-20T14:04:17;10.50;80.50
8994;DHT22;4532;50.886;4.700;2023-12-20T14:07:05;10.60;80.50
8994;DHT22;4532;50.886;4.700;2023-12-20T14:09:39;10.60;80.50
8994;DHT22;4532;50.886;4.700;2023-12-20T14:12:13;10.60;80.50
8994;DHT22;4532;50.886;4.700;2023-12-20T14:14:41;10.60;80.50
8994;DHT22;4532;50.886;4.700;2023-12-20T14:17:12;10.60;80.50
8994;DHT22;4532;50.886;4.700;2023-12-20T14:19:39;10.60;80.50
8994;DHT22;4532;50.886;4.700;2023-12-20T14:22:07;10.60;80.50
8994;DHT22;4532;50.886;4.700;2023-12-20T14:24:35;10.60;80.50
8994;DHT22;4532;50.886;4.700;2023-12-20T14:27:05;10.60;80.50
8994;DHT22;4532;50.886;4.700;2023-12-20T14:29:32;10.70;80.60
8994;DHT22;4532;50.886;4.700;2023-12-20T14:32:02;10.70;80.50
8994;DHT22;4532;50.886;4.700;2023-12-20T14:34:32;10.70;80.50
8994;DHT22;4532;50.886;4.700;2023-12-20T14:37:02;10.70;80.50
8994;DHT22;4532;50.886;4.700;2023-12-20T14:39:31;10.70;80.60
8994;DHT22;4532;50.886;4.700;2023-12-20T14:41:58;10.70;80.50
8994;DHT22;4532;50.886;4.700;2023-12-20T14:44:28;10.70;80.50
8994;DHT22;4532;50.886;4.700;2023-12-20T14:46:55;10.70;80.60
8994;DHT22;4532;50.886;4.700;2023-12-20T14:49:22;10.70;80.50
8994;DHT22;4532;50.886;4.700;2023-12-20T14:51:50;10.80;80.50
8994;DHT22;4532;50.886;4.700;2023-12-20T14:54:17;10.70;80.40
8994;DHT22;4532;50.886;4.700;2023-12-20T14:56:44;10.80;80.50
8994;DHT22;4532;50.886;4.700;2023-12-20T14:59:11;10.80;80.50
8994;DHT22;4532;50.886;4.700;2023-12-20T15:01:39;10.80;80.50
8994;DHT22;4532;50.886;4.700;2023-12-20T15:04:08;10.80;80.50
8994;DHT22;4532;50.886;4.700;2023-12-20T15:06:38;10.80;80.50
8994;DHT22;4532;50.886;4.700;2023-12-20T15:09:05;10.80;80.40
8994;DHT22;4532;50.886;4.700;2023-12-20T15:11:33;10.80;80.40
8994;DHT22;4532;50.886;4.700;2023-12-20T15:14:02;10.80;80.50
8994;DHT22;4532;50.886;4.700;2023-12-20T15:16:34;10.80;80.50
8994;DHT22;4532;50.886;4.700;2023-12-20T15:19:05;10.80;80.50
8994;DHT22;4532;50.886;4.700;2023-12-20T15:21:35;10.90;80.50
8994;DHT22;4532;50.886;4.700;2023-12-20T15:24:12;10.90;80.50
8994;DHT22;4532;50.886;4.700;2023-12-20T15:26:43;10.90;80.40
8994;DHT22;4532;50.886;4.700;2023-12-20T15:29:13;10.90;80.50
8994;DHT22;4532;50.886;4.700;2023-12-20T15:31:45;10.90;80.60
8994;DHT22;4532;50.886;4.700;2023-12-20T15:34:13;10.90;80.60
8994;DHT22;4532;50.886;4.700;2023-12-20T15:36:46;10.90;80.60
8994;DHT22;4532;50.886;4.700;2023-12-20T15:39:13;10.90;80.50
8994;DHT22;4532;50.886;4.700;2023-12-20T15:41:43;10.90;80.60
8994;DHT22;4532;50.886;4.700;2023-12-20T15:44:11;10.90;80.60
8994;DHT22;4532;50.886;4.700;2023-12-20T15:46:40;10.90;80.60
8994;DHT22;4532;50.886;4.700;2023-12-20T15:49:11;10.90;80.60
8994;DHT22;4532;50.886;4.700;2023-12-20T15:51:41;10.90;80.50
8994;DHT22;4532;50.886;4.700;2023-12-20T15:54:08;10.90;80.60
8994;DHT22;4532;50.886;4.700;2023-12-20T15:56:40;10.90;80.50
8994;DHT22;4532;50.886;4.700;2023-12-20T15:59:08;10.90;80.50
8994;DHT22;4532;50.886;4.700;2023-12-20T16:01:37;11.00;80.50
8994;DHT22;4532;50.886;4.700;2023-12-20T16:04:07;11.00;80.50
8994;DHT22;4532;50.886;4.700;2023-12-20T16:06:38;11.00;80.60
8994;DHT22;4532;50.886;4.700;2023-12-20T16:09:08;11.00;80.50
8994;DHT22;4532;50.886;4.700;2023-12-20T16:11:35;11.00;80.60
8994;DHT22;4532;50.886;4.700;2023-12-20T16:14:03;11.00;80.60
8994;DHT22;4532;50.886;4.700;2023-12-20T16:16:36;11.00;80.50
8994;DHT22;4532;50.886;4.700;2023-12-20T16:19:04;11.10;80.60
8994;DHT22;4532;50.886;4.700;2023-12-20T16:21:31;11.00;80.50
8994;DHT22;4532;50.886;4.700;2023-12-20T16:24:00;11.00;80.50
8994;DHT22;4532;50.886;4.700;2023-12-20T16:26:32;11.10;80.60
8994;DHT22;4532;50.886;4.700;2023-12-20T16:29:04;11.00;80.40
8994;DHT22;4532;50.886;4.700;2023-12-20T16:31:31;11.10;80.50
8994;DHT22;4532;50.886;4.700;2023-12-20T16:33:58;11.10;80.50